• Join FlightAware (Why Join?)
  • Login
  • US Flag 
09:30PM EDT


 

Airport Tracker/Info


-or-


 

Live Flight TrackerFlight Track Log ✈ N496DA ✈ 15-Feb-2014 ✈ KFXE - KAPF

Flight Track Log - Related Links

Times and Time Zones

All times are in EST time to prevent confusion due to time zone crossing. See the N496DA flight status page for this flight to view local times or setup timezone preferences in your user account.

Time Position Orientation Groundspeed Altitude Reporting Facility
EST Latitude Longitude Course Direction KTS MPH feet Rate Location/Type
12:21PM 26.1972 -80.1794 315° West 78 90 200  Level Miami Center
12:21PM 26.2014 -80.1842 315° West 76 87 500 660 Climbing Miami Center
12:22PM 26.2217 -80.2078 314° West 98 113 1,200 720 Climbing Miami Center
12:23PM 26.2358 -80.2314 304° West 93 107 2,000 660 Climbing Miami Center
12:24PM 26.2289 -80.2567 253° West 85 98 2,600 540 Climbing Miami Center
12:25PM 26.2197 -80.2842 250° West 90 104 3,200 540 Climbing Miami Center
12:26PM 26.2172 -80.3097 264° West 80 92 3,800 360 Climbing Miami Center
12:27PM 26.2103 -80.3350 253° West 98 113 4,000 60 Climbing Miami Center
12:28PM 26.2053 -80.3672 260° West 104 120 4,000  Level Miami Center
12:29PM 26.2003 -80.4017 261° West 106 122 4,000  Level Miami Center
12:30PM 26.1933 -80.4339 257° West 102 117 4,000  Level Miami Center
12:31PM 26.1861 -80.4661 256° West 102 117 4,000  Level Miami Center
12:32PM 26.1883 -80.4639 42° Northeast 104 120 4,000 60 Level Miami Center
12:33PM 26.1814 -80.4936 255° West 99 114 4,100  Climbing Miami Center
12:34PM 26.1722 -80.5236 251° West 101 116 4,100  Level Miami Center
12:34PM 26.1744 -80.5236 360° North 99 114 4,100  Level Miami Center
12:35PM 26.1672 -80.5558 256° West 103 119 4,100 -120 Level Miami Center
12:35PM 26.1672 -80.5536 90° East 104 120 4,000  Descending Miami Center
12:36PM 26.1625 -80.5811 259° West 97 112 4,100 60 Climbing Miami Center
12:36PM 26.1603 -80.5856 241° Southwest 98 113 4,100 -120 Level Miami Center
12:37PM 26.1553 -80.6133 259° West 103 119 4,000 -120 Descending Miami Center
12:37PM 26.1531 -80.6178 241° Southwest 102 117 4,000  Level Miami Center
12:38PM 26.1525 -80.6456 269° West 103 119 4,000  Level Miami Center
12:38PM 26.1483 -80.6478 206° Southwest 101 116 4,000  Level Miami Center
12:39PM 26.1497 -80.6756 273° West 103 119 4,000  Level Miami Center
12:40PM 26.1508 -80.7056 272° West 103 119 4,100  Climbing Miami Center
12:41PM 26.1733 -80.7272 319° Northwest 93 107 4,000 -60 Descending Miami Center
12:42PM 26.1956 -80.7511 316° Northwest 105 121 4,000 -60 Level Miami Center
12:43PM 26.2222 -80.7728 324° Northwest 116 133 3,900  Descending Miami Center
12:44PM 26.2425 -80.7919 320° Northwest 116 133 4,000 60 Climbing Miami Center
12:45PM 26.2669 -80.8183 316° Northwest 110 127 4,100  Climbing Miami Center
12:46PM 26.2872 -80.8422 313° West 117 135 4,000 -60 Descending Miami Center
12:47PM 26.3156 -80.8686 320° Northwest 117 135 4,000  Level Miami Center
12:48PM 26.3358 -80.8903 316° Northwest 117 135 4,000  Level Miami Center
12:49PM 26.3350 -80.9250 268° West 101 116 4,000  Level Miami Center
12:50PM 26.3300 -80.9547 259° West 109 125 4,000  Level Miami Center
12:51PM 26.3228 -80.9917 258° West 115 132 4,100  Climbing Miami Center
12:52PM 26.3178 -81.0217 259° West 115 132 4,000 -60 Descending Miami Center
12:53PM 26.3125 -81.0586 261° West 115 132 4,000  Level Miami Center
12:54PM 26.2931 -81.0808 226° Southwest 104 120 4,000  Level Miami Center
12:55PM 26.2639 -81.0753 170° South 93 107 4,000  Level Miami Center
12:56PM 26.2308 -81.0672 168° South 93 107 4,000  Level Miami Center
12:57PM 26.2236 -81.0969 255° West 83 96 4,100  Climbing Miami Center
12:58PM 26.2208 -81.1247 264° West 91 105 4,000 -60 Descending Miami Center
12:59PM 26.2158 -81.1522 259° West 97 112 4,000  Level Miami Center
01:00PM 26.2128 -81.1778 262° West 97 112 4,100  Climbing Miami Center
01:01PM 26.2100 -81.2075 264° West 97 112 4,100  Level Miami Center
01:02PM 26.2089 -81.2400 268° West 104 120 4,100 -60 Level Miami Center
01:03PM 26.2039 -81.2700 259° West 104 120 4,000 -60 Descending Miami Center
01:04PM 26.1986 -81.3022 260° West 104 120 4,000  Level Miami Center
01:05PM 26.1978 -81.3297 268° West 104 120 4,000  Level Miami Center
01:06PM 26.1928 -81.3644 261° West 104 120 4,000 -120 Level Miami Center
01:07PM 26.1894 -81.3967 263° West 104 120 3,800 -300 Descending Miami Center
01:08PM 26.1883 -81.4336 268° West 115 132 3,400 -420 Descending Miami Center
01:09PM 26.1850 -81.4728 265° West 125 144 3,000 -420 Descending Miami Center
01:11PM 26.1607 -81.5300 245° Southwest  Level FlightAware Approximate
01:18PM 26.1531 -81.7552 283° West  Level Estimated
01:19PM 26.1500 -81.7667 283° West  Level FlightAware Approximate
01:20PM 26.1524 -81.7756 283° West  Level Estimated
01:21PM 26.1524 -81.7756 283° West  Level Estimated
01:22PM 26.1524 -81.7756 283° West  Level Estimated
01:23PM 26.1524 -81.7756 283° West  Level Estimated
01:24PM 26.1524 -81.7756 283° West  Level Estimated
01:25PM 26.1524 -81.7756 283° West  Level Estimated
01:26PM 26.1524 -81.7756 283° West  Level Estimated